Time;durP1;ratioP1;P1;durP2;ratioP2;P2;SDS_P1;SDS_P2;PMS_P1;PMS_P2;Temp;Humidity;BMP_temperature;BMP_pressure;BME280_temperature;BME280_humidity;BME280_pressure;Samples;Min_cycle;Max_cycle;Signal;HPM_P1;HPM_P2
2023/06/18 00:00:13;;;;;;;13.15;9.20;;;20.00;99.90;;;;;;5039622;28;20577;-87
2023/06/18 00:02:41;;;;;;;16.02;8.25;;;19.90;99.90;;;;;;5038978;28;20201;-85
2023/06/18 00:05:08;;;;;;;16.02;10.02;;;19.90;99.90;;;;;;5026510;28;20201;-86
2023/06/18 00:07:38;;;;;;;15.65;9.57;;;19.80;99.90;;;;;;5020549;28;20206;-87
2023/06/18 00:10:13;;;;;;;16.35;9.75;;;19.80;99.90;;;;;;5030009;28;20228;-87
2023/06/18 00:12:40;;;;;;;15.15;8.98;;;19.80;99.90;;;;;;5020951;28;20209;-86
2023/06/18 00:15:08;;;;;;;14.40;9.73;;;19.80;99.90;;;;;;5041119;28;20206;-86
2023/06/18 00:17:36;;;;;;;16.15;9.70;;;19.70;99.90;;;;;;5014253;28;20234;-86
2023/06/18 00:20:05;;;;;;;15.23;9.57;;;19.70;99.90;;;;;;5040969;28;20260;-88
2023/06/18 00:22:37;;;;;;;13.52;10.13;;;19.80;99.90;;;;;;5014545;28;20226;-86
2023/06/18 00:25:06;;;;;;;14.77;9.98;;;19.90;99.90;;;;;;5033434;28;20247;-86
2023/06/18 00:27:34;;;;;;;15.13;10.32;;;19.90;99.90;;;;;;5043769;28;20209;-87
2023/06/18 00:30:01;;;;;;;15.43;9.75;;;19.90;99.90;;;;;;5037588;28;20240;-87
2023/06/18 00:32:28;;;;;;;14.75;10.13;;;20.00;99.90;;;;;;5050778;28;20301;-86
2023/06/18 00:34:55;;;;;;;17.40;9.80;;;20.00;99.90;;;;;;5014473;28;20272;-85
2023/06/18 00:37:25;;;;;;;15.77;9.38;;;19.90;99.90;;;;;;5038413;28;20202;-87
2023/06/18 00:39:53;;;;;;;15.18;10.15;;;20.10;99.90;;;;;;5042148;28;20587;-87
2023/06/18 00:42:21;;;;;;;14.27;9.00;;;20.10;99.90;;;;;;5041223;28;20241;-87
2023/06/18 00:44:48;;;;;;;15.48;9.30;;;20.10;99.90;;;;;;5038485;28;20248;-85
2023/06/18 00:47:19;;;;;;;14.95;10.00;;;20.10;99.90;;;;;;5039204;28;20220;-86
2023/06/18 00:49:50;;;;;;;14.80;10.13;;;20.20;99.90;;;;;;5013905;28;20638;-87
2023/06/18 00:52:23;;;;;;;13.90;9.60;;;20.20;99.90;;;;;;5025776;28;20210;-86
2023/06/18 00:54:55;;;;;;;17.42;10.57;;;20.20;99.90;;;;;;5030394;28;20229;-86
2023/06/18 00:57:23;;;;;;;17.40;10.63;;;20.20;99.90;;;;;;5033610;28;20214;-87
2023/06/18 00:59:51;;;;;;;16.85;10.90;;;20.30;99.90;;;;;;5034667;28;20209;-87
2023/06/18 01:02:23;;;;;;;15.43;9.98;;;20.30;99.90;;;;;;5023554;28;20193;-86
2023/06/18 01:04:56;;;;;;;18.23;10.70;;;20.30;99.90;;;;;;5041741;28;20229;-87
2023/06/18 01:07:28;;;;;;;14.30;10.23;;;20.30;99.90;;;;;;5025979;28;20205;-85
2023/06/18 01:10:05;;;;;;;18.73;10.57;;;20.30;99.90;;;;;;5032932;28;20226;-87
2023/06/18 01:12:33;;;;;;;17.00;11.07;;;20.30;99.90;;;;;;5031426;28;20224;-85
2023/06/18 01:15:02;;;;;;;15.95;10.50;;;20.30;99.90;;;;;;5037477;28;20236;-87
2023/06/18 01:17:33;;;;;;;18.48;10.45;;;20.30;99.90;;;;;;5044847;28;20303;-88
2023/06/18 01:20:09;;;;;;;15.07;9.80;;;20.30;99.90;;;;;;5042230;28;20229;-87
2023/06/18 01:22:57;;;;;;;18.60;10.55;;;20.40;99.90;;;;;;5042809;28;20681;-88
2023/06/18 01:25:27;;;;;;;14.35;10.88;;;20.40;99.90;;;;;;5045153;28;20212;-86
2023/06/18 01:27:56;;;;;;;14.38;9.60;;;20.40;99.90;;;;;;5024263;28;20281;-86
2023/06/18 01:30:34;;;;;;;;;;;;;;;;;;;;;
2023/06/18 01:33:12;;;;;;;16.58;10.63;;;20.40;99.90;;;;;;5046846;28;20671;-87
2023/06/18 01:35:41;;;;;;;16.83;10.23;;;20.30;99.90;;;;;;5022904;28;20203;-87
2023/06/18 01:38:30;;;;;;;17.48;10.60;;;20.30;99.90;;;;;;5047912;28;20714;-86
2023/06/18 01:41:12;;;;;;;17.58;10.48;;;20.30;99.90;;;;;;5036118;28;20210;-87
2023/06/18 01:43:48;;;;;;;17.10;10.70;;;20.30;99.90;;;;;;5025136;28;20288;-86
2023/06/18 01:46:25;;;;;;;14.20;9.90;;;20.20;99.90;;;;;;5045540;28;20202;-85
2023/06/18 01:48:59;;;;;;;15.88;11.45;;;20.20;99.90;;;;;;5049928;28;20209;-86
2023/06/18 01:51:33;;;;;;;19.98;12.07;;;20.20;99.90;;;;;;5033249;28;20262;-86
2023/06/18 01:54:03;;;;;;;17.10;10.93;;;20.20;99.90;;;;;;5046822;28;20255;-86
2023/06/18 01:56:34;;;;;;;18.73;11.70;;;20.20;99.90;;;;;;5036658;28;20205;-88
2023/06/18 01:59:04;;;;;;;19.10;10.95;;;20.10;99.90;;;;;;5042772;28;20209;-87
2023/06/18 02:01:34;;;;;;;16.58;10.85;;;20.30;99.90;;;;;;5030646;28;20209;-87
2023/06/18 02:04:05;;;;;;;17.75;10.52;;;20.20;99.90;;;;;;5047776;28;20216;-87
2023/06/18 02:06:32;;;;;;;15.00;10.02;;;20.20;99.90;;;;;;5031127;28;20645;-89
2023/06/18 02:08:59;;;;;;;17.88;10.73;;;20.20;99.90;;;;;;5046883;28;20644;-86
2023/06/18 02:11:27;;;;;;;19.27;11.45;;;20.20;99.90;;;;;;5046273;28;20209;-86
2023/06/18 02:13:54;;;;;;;20.27;11.85;;;20.20;99.90;;;;;;5031144;28;20243;-87
2023/06/18 02:16:22;;;;;;;16.90;9.95;;;20.20;99.90;;;;;;5034094;28;20234;-87
2023/06/18 02:18:51;;;;;;;21.33;11.18;;;20.20;99.90;;;;;;5052479;28;20202;-85
2023/06/18 02:21:22;;;;;;;15.23;10.73;;;20.10;99.90;;;;;;5027697;28;20202;-85
2023/06/18 02:23:50;;;;;;;16.77;10.55;;;20.10;99.90;;;;;;5027379;28;20237;-88
2023/06/18 02:26:25;;;;;;;19.92;10.90;;;20.10;99.90;;;;;;5041559;28;20213;-86
2023/06/18 02:28:54;;;;;;;16.70;10.88;;;20.00;99.90;;;;;;5024313;28;20628;-88
2023/06/18 02:31:21;;;;;;;17.95;11.82;;;20.00;99.90;;;;;;5021168;28;20214;-87
2023/06/18 02:33:48;;;;;;;17.48;12.05;;;19.90;99.90;;;;;;5022951;28;20779;-85
2023/06/18 02:36:22;;;;;;;18.95;11.73;;;19.80;99.90;;;;;;5042949;28;20288;-86
2023/06/18 02:38:53;;;;;;;14.75;10.35;;;19.80;99.90;;;;;;5027852;28;20570;-87
2023/06/18 02:41:27;;;;;;;17.80;11.38;;;19.80;99.90;;;;;;5035188;28;20272;-89
2023/06/18 02:43:56;;;;;;;20.33;11.43;;;19.80;99.90;;;;;;5022564;28;20291;-87
2023/06/18 02:46:32;;;;;;;18.77;11.68;;;19.70;99.90;;;;;;5038995;28;20571;-86
2023/06/18 02:49:03;;;;;;;20.70;12.27;;;19.70;99.90;;;;;;5042090;28;20248;-86
2023/06/18 02:51:31;;;;;;;21.75;13.18;;;19.70;99.90;;;;;;5022761;28;20206;-87
2023/06/18 02:53:59;;;;;;;19.10;12.70;;;19.70;99.90;;;;;;5041686;28;20230;-86
2023/06/18 02:56:28;;;;;;;20.10;12.68;;;19.70;99.90;;;;;;5039531;28;20575;-85
2023/06/18 02:59:00;;;;;;;20.88;12.95;;;19.60;99.90;;;;;;5016757;28;20241;-88
2023/06/18 03:01:32;;;;;;;19.73;12.80;;;19.60;99.90;;;;;;5032438;28;20214;-86
2023/06/18 03:03:59;;;;;;;17.75;11.93;;;19.60;99.90;;;;;;5036710;28;20217;-85
2023/06/18 03:06:40;;;;;;;;;;;;;;;;;;;;;
2023/06/18 03:09:08;;;;;;;20.58;12.60;;;19.40;99.90;;;;;;5055091;28;20221;-87
2023/06/18 03:11:37;;;;;;;19.92;12.73;;;19.50;99.90;;;;;;5027198;28;20197;-87
2023/06/18 03:14:04;;;;;;;20.05;12.15;;;19.50;99.90;;;;;;5041657;28;20252;-87
2023/06/18 03:16:31;;;;;;;18.98;11.48;;;19.40;99.90;;;;;;5042823;28;20209;-86
2023/06/18 03:18:58;;;;;;;15.73;11.15;;;19.40;99.90;;;;;;5026425;28;20205;-87
2023/06/18 03:21:25;;;;;;;20.40;11.77;;;19.40;99.90;;;;;;5027245;28;20205;-85
2023/06/18 03:23:54;;;;;;;17.35;11.45;;;19.40;99.90;;;;;;5024981;28;20594;-86
2023/06/18 03:26:24;;;;;;;21.13;11.65;;;19.30;99.90;;;;;;5042473;28;20300;-85
2023/06/18 03:28:53;;;;;;;20.02;12.20;;;19.30;99.90;;;;;;5047052;28;20720;-86
2023/06/18 03:31:21;;;;;;;19.33;12.50;;;19.20;99.90;;;;;;5052173;28;20197;-85
2023/06/18 03:33:51;;;;;;;18.08;11.75;;;19.30;99.90;;;;;;5044801;28;20670;-87
2023/06/18 03:36:18;;;;;;;20.70;12.32;;;19.20;99.90;;;;;;5043384;28;20212;-87
2023/06/18 03:38:46;;;;;;;19.83;12.70;;;19.20;99.90;;;;;;5042361;28;20221;-86
2023/06/18 03:41:16;;;;;;;18.70;12.38;;;19.20;99.90;;;;;;5044552;28;20335;-89
2023/06/18 03:43:43;;;;;;;19.55;12.20;;;19.20;99.90;;;;;;5040901;28;20237;-86
2023/06/18 03:46:10;;;;;;;22.50;12.95;;;19.10;99.90;;;;;;5025271;28;20654;-86
2023/06/18 03:48:37;;;;;;;20.13;12.93;;;19.10;99.90;;;;;;5041844;28;20213;-87
2023/06/18 03:51:10;;;;;;;21.30;12.60;;;19.10;99.90;;;;;;5041501;28;20217;-87
2023/06/18 03:53:37;;;;;;;21.45;12.60;;;19.10;99.90;;;;;;5043101;28;20245;-86
2023/06/18 03:56:06;;;;;;;19.38;12.18;;;19.10;99.90;;;;;;5021807;28;20252;-87
2023/06/18 03:58:37;;;;;;;20.17;13.23;;;19.10;99.90;;;;;;5041249;28;20213;-86
2023/06/18 04:01:04;;;;;;;17.00;11.63;;;19.10;99.90;;;;;;5037270;28;20204;-87
2023/06/18 04:03:31;;;;;;;18.75;12.05;;;19.20;99.90;;;;;;5029872;28;20194;-86
2023/06/18 04:05:58;;;;;;;20.33;13.27;;;19.20;99.90;;;;;;5036264;28;20293;-86
2023/06/18 04:08:27;;;;;;;22.63;13.50;;;19.20;99.90;;;;;;5018269;28;20210;-89
2023/06/18 04:11:00;;;;;;;21.83;13.18;;;19.20;99.90;;;;;;5031494;28;20208;-86
2023/06/18 04:13:28;;;;;;;25.30;13.15;;;19.20;99.90;;;;;;5038968;28;20201;-86
2023/06/18 04:15:58;;;;;;;18.73;11.85;;;19.20;99.90;;;;;;5039014;28;20248;-87
2023/06/18 04:18:26;;;;;;;23.13;12.00;;;19.30;99.90;;;;;;5018327;28;20222;-89
2023/06/18 04:20:55;;;;;;;18.55;12.52;;;19.30;99.90;;;;;;5040048;28;20216;-86
2023/06/18 04:23:23;;;;;;;20.10;12.88;;;19.40;99.90;;;;;;5019755;28;20725;-87
2023/06/18 04:25:50;;;;;;;21.63;13.32;;;19.40;99.90;;;;;;5045040;28;20213;-87
2023/06/18 04:28:17;;;;;;;17.52;12.18;;;19.40;99.90;;;;;;5026220;28;20241;-86
2023/06/18 04:30:45;;;;;;;22.65;12.57;;;19.60;99.90;;;;;;5049173;28;20197;-85
2023/06/18 04:33:15;;;;;;;21.85;12.48;;;19.70;99.90;;;;;;5043940;28;20624;-87
2023/06/18 04:35:44;;;;;;;19.05;11.63;;;19.80;99.90;;;;;;5022789;28;20232;-86
2023/06/18 04:38:13;;;;;;;18.63;11.65;;;19.90;99.90;;;;;;5035799;28;20217;-86
2023/06/18 04:40:42;;;;;;;18.30;11.63;;;20.00;99.90;;;;;;5031954;28;20272;-87
2023/06/18 04:43:14;;;;;;;24.10;13.20;;;20.10;99.90;;;;;;5043238;28;20581;-87
2023/06/18 04:45:44;;;;;;;19.58;11.95;;;20.20;99.90;;;;;;5046192;28;20213;-87
2023/06/18 04:48:17;;;;;;;17.73;11.18;;;20.20;99.90;;;;;;5048667;28;20661;-88
2023/06/18 04:50:48;;;;;;;22.52;12.52;;;20.20;99.90;;;;;;5043127;28;20204;-86
2023/06/18 04:53:24;;;;;;;19.83;12.10;;;20.30;99.90;;;;;;5041399;28;20233;-88
2023/06/18 04:55:53;;;;;;;18.52;13.02;;;20.40;99.90;;;;;;5017678;28;20232;-86
2023/06/18 04:58:22;;;;;;;18.73;12.30;;;20.50;99.90;;;;;;5025177;28;20278;-86
2023/06/18 05:00:49;;;;;;;21.63;13.48;;;20.50;99.90;;;;;;5043067;28;20220;-88
2023/06/18 05:03:19;;;;;;;22.00;13.35;;;20.60;99.90;;;;;;5043439;28;20305;-86
2023/06/18 05:05:52;;;;;;;19.35;12.55;;;20.70;99.90;;;;;;5025581;28;20209;-87
2023/06/18 05:08:42;;;;;;;17.73;12.23;;;20.80;99.90;;;;;;5024914;28;20285;-89
2023/06/18 05:11:15;;;;;;;21.10;12.23;;;20.90;99.90;;;;;;5043260;28;20308;-86
2023/06/18 05:13:46;;;;;;;19.60;12.25;;;21.00;99.90;;;;;;5030479;28;20205;-86
2023/06/18 05:16:21;;;;;;;16.77;11.30;;;21.20;99.90;;;;;;5039906;28;20233;-86
2023/06/18 05:18:49;;;;;;;19.90;11.10;;;21.30;99.90;;;;;;5024476;28;20210;-87
2023/06/18 05:21:17;;;;;;;18.80;11.30;;;21.40;99.90;;;;;;5043223;28;20643;-87
2023/06/18 05:23:48;;;;;;;23.00;12.73;;;21.60;99.90;;;;;;5026378;28;20228;-89
2023/06/18 05:29:09;;;;;;;18.38;12.95;;;21.80;99.90;;;;;;5041618;28;20259;-87
2023/06/18 05:31:36;;;;;;;18.95;11.80;;;22.00;99.90;;;;;;5029445;28;20299;-89
2023/06/18 05:34:03;;;;;;;18.70;12.27;;;22.40;99.90;;;;;;5043341;28;20299;-87
2023/06/18 05:36:33;;;;;;;16.83;11.23;;;22.80;99.90;;;;;;5036523;28;20593;-85
2023/06/18 05:39:10;;;;;;;19.48;11.93;;;23.40;99.90;;;;;;5022255;28;20258;-86
2023/06/18 05:41:53;;;;;;;19.30;11.50;;;23.70;99.90;;;;;;5044657;28;20221;-88
2023/06/18 05:44:24;;;;;;;16.08;10.80;;;24.20;99.90;;;;;;5037190;28;20229;-86
2023/06/18 05:46:57;;;;;;;16.00;10.90;;;24.60;99.90;;;;;;5028169;28;20285;-86
2023/06/18 05:49:25;;;;;;;15.55;10.80;;;24.90;99.90;;;;;;5041643;28;20213;-89
2023/06/18 05:52:13;;;;;;;16.27;10.38;;;25.20;99.90;;;;;;5019897;28;20216;-88
2023/06/18 05:55:08;;;;;;;15.20;10.63;;;25.30;99.90;;;;;;5040435;28;20277;-89
2023/06/18 05:57:38;;;;;;;17.10;10.80;;;25.40;99.90;;;;;;5042198;28;20575;-89
2023/06/18 06:00:08;;;;;;;16.88;11.10;;;25.60;99.90;;;;;;5019732;28;20233;-88
2023/06/18 06:02:37;;;;;;;16.17;10.52;;;25.90;99.90;;;;;;5040630;28;20200;-88
2023/06/18 06:05:10;;;;;;;15.63;10.93;;;26.30;99.90;;;;;;5049772;28;20679;-88
2023/06/18 06:07:41;;;;;;;14.50;10.40;;;27.20;99.90;;;;;;5044991;28;20635;-87
2023/06/18 06:10:21;;;;;;;17.33;10.90;;;27.10;99.90;;;;;;5020037;28;20221;-86
2023/06/18 06:12:56;;;;;;;15.50;10.60;;;27.60;99.90;;;;;;5033635;28;20205;-87
2023/06/18 06:15:23;;;;;;;15.52;10.57;;;28.10;99.90;;;;;;5047820;28;20646;-88
2023/06/18 06:22:00;;;;;;;16.58;10.55;;;28.40;99.90;;;;;;4947963;28;20698;-87
2023/06/18 06:24:44;;;;;;;15.00;10.70;;;28.60;99.90;;;;;;4984801;28;20819;-87
2023/06/18 06:28:11;;;;;;;;;;;;;;;;;;;;;
2023/06/18 06:34:21;;;;;;;;;;;;;;;;;;;;;
2023/06/18 06:37:26;;;;;;;;;;;;;;;;;;;;;
2023/06/18 06:40:32;;;;;;;14.30;9.52;;;30.00;98.10;;;;;;4912048;28;20224;-87
2023/06/18 06:44:13;;;;;;;;;;;;;;;;;;;;;
2023/06/18 06:47:49;;;;;;;;;;;;;;;;;;;;;
2023/06/18 06:50:44;;;;;;;13.18;9.38;;;30.50;96.00;;;;;;4827627;29;20376;-91
2023/06/18 06:54:17;;;;;;;12.05;9.45;;;30.80;94.50;;;;;;4878497;29;20255;-88
2023/06/18 06:57:22;;;;;;;;;;;;;;;;;;;;;
2023/06/18 07:04:20;;;;;;;14.02;9.80;;;31.10;93.40;;;;;;4949397;28;20204;-89
2023/06/18 07:08:01;;;;;;;;;;;;;;;;;;;;;
2023/06/18 07:11:40;;;;;;;;;;;;;;;;;;;;;
2023/06/18 07:22:46;;;;;;;14.40;10.52;;;31.90;91.80;;;;;;4778103;30;20259;-89
2023/06/18 07:25:13;;;;;;;12.57;10.27;;;32.10;91.20;;;;;;4806799;29;20691;-88
2023/06/18 07:28:00;;;;;;;15.48;10.75;;;32.20;90.90;;;;;;4824976;29;20253;-86
2023/06/18 07:30:33;;;;;;;15.68;11.85;;;32.50;90.50;;;;;;5015172;28;20467;-87
2023/06/18 07:33:05;;;;;;;12.95;10.25;;;32.60;90.10;;;;;;5013724;28;20607;-87
2023/06/18 07:35:41;;;;;;;15.48;11.48;;;32.60;89.50;;;;;;5022816;28;20248;-89
2023/06/18 07:38:28;;;;;;;14.55;11.50;;;32.60;88.90;;;;;;5019835;28;20230;-87
2023/06/18 07:41:05;;;;;;;18.60;12.02;;;32.60;88.30;;;;;;5009321;28;20202;-86
2023/06/18 07:43:33;;;;;;;16.08;10.38;;;32.40;87.90;;;;;;5013086;28;20686;-88
2023/06/18 07:46:17;;;;;;;16.48;11.32;;;32.20;89.00;;;;;;5016366;28;20206;-90
2023/06/18 07:49:00;;;;;;;16.02;11.60;;;32.20;88.40;;;;;;5020733;28;20218;-87
2023/06/18 07:51:30;;;;;;;13.13;10.90;;;32.10;88.20;;;;;;5026704;28;20231;-88
2023/06/18 07:53:57;;;;;;;14.52;10.95;;;31.90;88.20;;;;;;5024514;28;20317;-89
2023/06/18 07:56:26;;;;;;;13.75;10.50;;;31.90;87.70;;;;;;5023950;28;20250;-86
2023/06/18 07:58:57;;;;;;;13.18;10.65;;;32.00;87.50;;;;;;5025413;28;20294;-88
2023/06/18 08:01:24;;;;;;;13.57;10.55;;;32.00;87.60;;;;;;5010231;28;20206;-88
2023/06/18 08:03:52;;;;;;;12.82;9.93;;;32.00;87.70;;;;;;5035091;28;20210;-87
2023/06/18 08:06:33;;;;;;;13.25;10.65;;;32.20;87.60;;;;;;5019748;28;20558;-88
2023/06/18 08:09:13;;;;;;;13.38;10.75;;;32.30;87.00;;;;;;5015885;28;20600;-86
2023/06/18 08:11:56;;;;;;;12.55;9.90;;;32.40;86.60;;;;;;5017117;28;20206;-88
2023/06/18 08:14:30;;;;;;;14.05;10.77;;;32.40;86.40;;;;;;5024882;28;20210;-88
2023/06/18 08:17:05;;;;;;;13.00;10.27;;;32.40;86.40;;;;;;5034287;28;20238;-87
2023/06/18 08:19:35;;;;;;;14.23;10.30;;;32.40;86.30;;;;;;5022598;28;20198;-87
2023/06/18 08:22:08;;;;;;;15.50;11.35;;;32.40;85.80;;;;;;5047335;28;20297;-88
2023/06/18 08:24:43;;;;;;;13.10;10.40;;;32.40;85.40;;;;;;5024836;28;20222;-88
2023/06/18 08:27:25;;;;;;;14.77;10.65;;;32.40;85.20;;;;;;5027706;28;20202;-88
2023/06/18 08:29:55;;;;;;;13.55;10.23;;;32.30;85.40;;;;;;5012724;28;20740;-87
2023/06/18 08:32:24;;;;;;;11.38;10.00;;;32.40;85.70;;;;;;5013018;28;20208;-87
2023/06/18 08:35:04;;;;;;;12.25;9.43;;;32.50;85.00;;;;;;5019693;28;20737;-87
2023/06/18 08:37:32;;;;;;;13.25;9.88;;;32.60;84.50;;;;;;5022482;28;20251;-87
2023/06/18 08:39:59;;;;;;;11.60;9.40;;;32.60;84.20;;;;;;5022760;28;20309;-86
2023/06/18 08:42:27;;;;;;;11.65;8.85;;;32.40;84.30;;;;;;5013811;28;20257;-87
2023/06/18 08:44:55;;;;;;;14.48;9.60;;;32.30;84.50;;;;;;5040095;28;20208;-88
2023/06/18 08:47:24;;;;;;;13.43;10.00;;;32.20;84.10;;;;;;5024192;28;20665;-88
2023/06/18 08:49:54;;;;;;;13.18;8.95;;;31.90;84.20;;;;;;5025588;28;20228;-88
2023/06/18 08:52:34;;;;;;;12.88;8.82;;;31.70;83.90;;;;;;5027020;28;20216;-87
2023/06/18 08:55:03;;;;;;;12.60;9.13;;;31.30;84.00;;;;;;5033381;28;20305;-87
2023/06/18 08:57:52;;;;;;;12.80;9.73;;;31.00;84.70;;;;;;5048967;28;20212;-87
2023/06/18 09:00:26;;;;;;;13.82;9.35;;;30.60;84.80;;;;;;5018914;28;20202;-91
2023/06/18 09:03:04;;;;;;;11.23;8.63;;;30.40;85.60;;;;;;5024631;28;20213;-87
2023/06/18 09:05:35;;;;;;;11.65;8.70;;;30.10;85.10;;;;;;5048118;28;20635;-88
2023/06/18 09:08:05;;;;;;;11.68;9.23;;;30.00;85.10;;;;;;5027853;28;20229;-84
2023/06/18 09:10:33;;;;;;;13.57;9.07;;;30.00;86.10;;;;;;5031038;28;20771;-87
2023/06/18 09:13:00;;;;;;;13.85;9.13;;;29.90;87.30;;;;;;5021840;28;20214;-87
2023/06/18 09:15:28;;;;;;;9.77;8.30;;;29.90;87.80;;;;;;5018822;28;20247;-86
2023/06/18 09:17:58;;;;;;;12.57;8.40;;;29.90;87.10;;;;;;5047364;28;20229;-87
2023/06/18 09:20:32;;;;;;;11.85;8.48;;;29.90;86.00;;;;;;5047775;28;20248;-86
2023/06/18 09:23:07;;;;;;;12.50;8.05;;;29.80;85.40;;;;;;5025407;28;20209;-87
2023/06/18 09:25:35;;;;;;;10.90;8.70;;;29.90;86.50;;;;;;5047401;28;20208;-87
2023/06/18 09:28:04;;;;;;;13.90;8.50;;;30.00;87.50;;;;;;5047687;28;20303;-87
2023/06/18 09:30:31;;;;;;;13.25;8.70;;;30.30;86.60;;;;;;5047773;28;20216;-88
2023/06/18 09:32:59;;;;;;;12.48;8.18;;;30.40;85.90;;;;;;5047667;28;20205;-88
2023/06/18 09:35:37;;;;;;;13.30;9.02;;;30.60;85.40;;;;;;5047227;28;20274;-86
2023/06/18 09:38:10;;;;;;;10.18;8.30;;;30.60;85.40;;;;;;5050635;28;20214;-88
2023/06/18 09:40:48;;;;;;;12.50;8.27;;;30.70;86.00;;;;;;5045244;28;20240;-87
2023/06/18 09:43:18;;;;;;;10.50;8.13;;;30.90;86.70;;;;;;5028346;28;20823;-87
2023/06/18 09:45:47;;;;;;;9.23;8.10;;;31.10;85.70;;;;;;5025384;28;20205;-87
2023/06/18 09:48:16;;;;;;;10.07;8.23;;;31.30;84.90;;;;;;5044971;28;20228;-87
2023/06/18 09:51:03;;;;;;;13.05;8.52;;;31.30;84.50;;;;;;5045304;28;20205;-87
2023/06/18 09:53:33;;;;;;;11.65;9.05;;;31.40;84.40;;;;;;5044515;28;20252;-88
2023/06/18 09:56:18;;;;;;;9.50;7.95;;;31.40;85.10;;;;;;5047431;28;20268;-87
2023/06/18 09:58:50;;;;;;;11.23;8.73;;;31.50;80.80;;;;;;5034457;28;20210;-87
2023/06/18 10:01:27;;;;;;;12.65;7.72;;;31.40;81.40;;;;;;5021745;28;20210;-86
2023/06/18 10:03:56;;;;;;;8.73;7.20;;;31.40;80.10;;;;;;5034147;28;20573;-87
2023/06/18 10:06:23;;;;;;;9.77;6.32;;;31.40;78.70;;;;;;5039232;28;20304;-87
2023/06/18 10:08:55;;;;;;;6.97;5.68;;;31.50;78.40;;;;;;5045425;28;20221;-88
2023/06/18 10:11:22;;;;;;;7.30;5.82;;;31.50;75.30;;;;;;5053051;28;20307;-87
2023/06/18 10:14:10;;;;;;;6.82;5.68;;;31.70;72.00;;;;;;5033404;28;20216;-87
2023/06/18 10:16:48;;;;;;;8.50;5.75;;;31.80;69.20;;;;;;5031725;28;20601;-85
2023/06/18 10:19:45;;;;;;;8.27;5.78;;;32.00;70.00;;;;;;5032495;28;20217;-87
2023/06/18 10:22:16;;;;;;;7.85;5.55;;;32.20;70.50;;;;;;5034118;28;20302;-87
2023/06/18 10:24:53;;;;;;;6.97;6.07;;;32.40;67.90;;;;;;5033459;28;20249;-86
2023/06/18 10:27:21;;;;;;;6.63;5.90;;;32.60;66.40;;;;;;5032534;28;20197;-87
2023/06/18 10:29:48;;;;;;;7.43;6.47;;;32.70;66.10;;;;;;5036502;28;20232;-86
2023/06/18 10:32:23;;;;;;;7.30;5.88;;;32.80;66.20;;;;;;5035687;28;20210;-86
2023/06/18 10:34:59;;;;;;;7.55;6.30;;;33.10;66.40;;;;;;5021794;28;20213;-87
2023/06/18 10:37:35;;;;;;;9.18;5.90;;;33.20;65.20;;;;;;5059371;28;20229;-86
2023/06/18 10:40:06;;;;;;;7.22;5.90;;;33.30;65.70;;;;;;5039508;28;20249;-88
2023/06/18 10:42:36;;;;;;;7.22;6.13;;;33.50;65.50;;;;;;5043173;28;20202;-85
2023/06/18 10:45:10;;;;;;;8.40;6.53;;;33.50;65.90;;;;;;5042295;28;20216;-87
2023/06/18 10:47:43;;;;;;;7.78;6.60;;;33.60;63.80;;;;;;5024268;28;20228;-86
2023/06/18 10:50:16;;;;;;;8.23;6.93;;;33.70;64.30;;;;;;5042575;28;20202;-87
2023/06/18 10:52:50;;;;;;;9.48;7.20;;;33.80;63.80;;;;;;5043088;28;20297;-86
2023/06/18 10:55:24;;;;;;;6.57;5.88;;;33.80;63.60;;;;;;5017958;28;20201;-84
2023/06/18 10:58:02;;;;;;;7.72;6.25;;;33.70;62.40;;;;;;5042411;28;20228;-87
2023/06/18 11:00:40;;;;;;;8.02;6.53;;;33.60;62.80;;;;;;5042543;28;20201;-86
2023/06/18 11:03:17;;;;;;;7.78;6.45;;;33.50;63.50;;;;;;5024180;28;20281;-87
2023/06/18 11:05:51;;;;;;;8.43;6.53;;;33.40;62.90;;;;;;5034264;28;20205;-86
2023/06/18 11:08:44;;;;;;;7.00;6.00;;;33.10;62.40;;;;;;5023612;28;20229;-87
2023/06/18 11:11:26;;;;;;;6.63;5.93;;;32.90;62.40;;;;;;5041331;28;20237;-85
2023/06/18 11:14:19;;;;;;;8.85;5.80;;;32.70;61.80;;;;;;5038506;28;20209;-87
2023/06/18 11:17:13;;;;;;;7.38;5.55;;;32.50;61.70;;;;;;5039737;28;20237;-87
2023/06/18 11:19:44;;;;;;;9.52;5.93;;;32.20;60.60;;;;;;5019421;28;20202;-87
2023/06/18 11:22:15;;;;;;;9.20;5.80;;;32.10;60.40;;;;;;5039434;28;20575;-87
2023/06/18 11:24:46;;;;;;;7.13;5.70;;;31.90;59.90;;;;;;5025888;28;20229;-86
2023/06/18 11:31:36;;;;;;;8.27;6.53;;;31.80;60.00;;;;;;5044238;28;20201;-86
2023/06/18 11:34:14;;;;;;;7.78;5.80;;;31.70;60.90;;;;;;5024578;28;20300;-86
2023/06/18 11:37:02;;;;;;;9.25;7.40;;;31.60;61.30;;;;;;5034536;28;20247;-86
2023/06/18 11:39:47;;;;;;;12.65;7.60;;;31.70;62.40;;;;;;5019165;28;20596;-88
2023/06/18 11:42:25;;;;;;;9.00;6.60;;;31.50;62.50;;;;;;5042600;28;20205;-86
2023/06/18 11:45:42;;;;;;;7.55;5.97;;;31.50;62.80;;;;;;5028075;28;20204;-87
2023/06/18 11:49:16;;;;;;;10.95;7.38;;;31.30;63.50;;;;;;4941239;29;20218;-85
2023/06/18 11:52:44;;;;;;;9.38;7.35;;;31.20;63.20;;;;;;4922435;29;20217;-86
2023/06/18 11:56:38;;;;;;;9.43;7.10;;;31.30;63.70;;;;;;4918652;29;20216;-86
2023/06/18 12:00:22;;;;;;;8.38;6.70;;;31.30;64.50;;;;;;4902268;29;20309;-87
2023/06/18 12:03:03;;;;;;;8.32;6.35;;;31.20;62.40;;;;;;4928623;29;21099;-87
2023/06/18 12:05:37;;;;;;;8.25;5.88;;;31.20;62.50;;;;;;4965059;28;20213;-86
2023/06/18 12:08:11;;;;;;;7.70;5.63;;;31.10;60.80;;;;;;5041387;28;20233;-86
2023/06/18 12:10:40;;;;;;;7.07;5.55;;;31.00;60.40;;;;;;5039489;28;20296;-85
2023/06/18 12:13:40;;;;;;;6.78;5.50;;;30.80;60.60;;;;;;5037618;28;20213;-87
2023/06/18 12:16:15;;;;;;;8.75;5.70;;;30.80;60.50;;;;;;5034641;28;20251;-86
2023/06/18 12:18:44;;;;;;;7.30;6.05;;;30.70;61.10;;;;;;5032235;28;20249;-88
2023/06/18 12:21:13;;;;;;;8.43;5.90;;;30.70;61.00;;;;;;5034729;28;20637;-88
2023/06/18 12:23:43;;;;;;;6.57;5.25;;;30.80;61.40;;;;;;5037305;28;20653;-86
2023/06/18 12:26:10;;;;;;;6.38;5.68;;;30.70;62.00;;;;;;5038548;28;20217;-86
2023/06/18 12:29:09;;;;;;;6.82;6.07;;;30.80;62.10;;;;;;5031428;28;20282;-87
2023/06/18 12:32:19;;;;;;;7.30;5.78;;;31.00;61.80;;;;;;4979168;28;20208;-86
2023/06/18 12:34:49;;;;;;;10.25;6.25;;;31.10;61.80;;;;;;5020507;28;20218;-87
2023/06/18 12:37:16;;;;;;;7.75;6.68;;;31.00;61.90;;;;;;5033087;28;20635;-89
2023/06/18 12:40:22;;;;;;;8.38;5.70;;;31.00;62.30;;;;;;5013600;28;20701;-88
2023/06/18 12:42:50;;;;;;;6.03;5.43;;;31.00;61.90;;;;;;5027025;28;20217;-87
2023/06/18 12:45:29;;;;;;;8.80;5.82;;;31.00;62.10;;;;;;5036337;28;20713;-88
2023/06/18 12:48:11;;;;;;;7.28;6.22;;;31.00;62.40;;;;;;5020045;28;20259;-85
2023/06/18 12:51:10;;;;;;;7.43;5.47;;;30.90;62.80;;;;;;5012386;28;20213;-87
2023/06/18 12:54:52;;;;;;;7.20;5.55;;;30.90;62.50;;;;;;5030338;28;20617;-85
2023/06/18 13:01:21;;;;;;;10.00;5.20;;;30.70;64.10;;;;;;4941156;28;20678;-85
2023/06/18 13:04:50;;;;;;;6.85;6.05;;;30.60;63.60;;;;;;4971148;28;20587;-86
2023/06/18 13:15:02;;;;;;;8.57;6.70;;;30.50;62.60;;;;;;4983339;28;20215;-86
2023/06/18 13:17:30;;;;;;;6.68;5.50;;;30.30;62.20;;;;;;5038891;28;20228;-86
2023/06/18 13:19:57;;;;;;;7.05;5.25;;;30.20;62.10;;;;;;5046093;28;20666;-86
2023/06/18 13:22:26;;;;;;;6.95;5.25;;;30.10;62.40;;;;;;5044491;28;20205;-86
2023/06/18 13:24:58;;;;;;;7.10;5.10;;;30.20;62.40;;;;;;5041604;28;20604;-86
2023/06/18 13:27:28;;;;;;;7.13;5.35;;;30.20;62.10;;;;;;5042295;28;20213;-87
2023/06/18 13:29:58;;;;;;;5.35;4.65;;;30.20;61.70;;;;;;5042855;28;20245;-87
2023/06/18 13:32:29;;;;;;;5.95;4.72;;;30.10;61.60;;;;;;5042759;28;20256;-87
2023/06/18 13:35:01;;;;;;;6.18;4.80;;;30.10;61.40;;;;;;5042170;28;20298;-90
2023/06/18 13:41:58;;;;;;;;;;;;;;;;;;;;;
2023/06/18 13:48:00;;;;;;;7.97;5.20;;;29.90;60.80;;;;;;4983282;28;20542;-87
2023/06/18 13:50:31;;;;;;;7.10;5.20;;;29.70;60.90;;;;;;5033399;28;20271;-89
2023/06/18 13:52:58;;;;;;;5.82;4.95;;;29.60;61.00;;;;;;5042209;28;20214;-86
2023/06/18 13:55:27;;;;;;;10.00;7.05;;;29.60;60.90;;;;;;5048102;28;20248;-86
2023/06/18 13:58:05;;;;;;;13.10;9.38;;;29.50;61.30;;;;;;5027493;28;20705;-86
2023/06/18 14:00:32;;;;;;;14.13;9.95;;;29.50;61.90;;;;;;5046025;28;20288;-88
2023/06/18 14:03:54;;;;;;;8.85;7.32;;;29.50;61.60;;;;;;5029452;28;20557;-87
2023/06/18 14:06:23;;;;;;;11.88;7.78;;;29.40;61.80;;;;;;5046047;28;20236;-86
2023/06/18 14:08:52;;;;;;;8.60;6.75;;;29.30;61.90;;;;;;5042662;28;20232;-85
2023/06/18 14:11:22;;;;;;;6.57;5.93;;;29.30;62.20;;;;;;5043647;28;20197;-86
2023/06/18 14:13:51;;;;;;;8.00;6.05;;;29.20;61.90;;;;;;5039602;28;20205;-86
2023/06/18 14:16:23;;;;;;;9.38;6.18;;;29.20;62.30;;;;;;5038677;28;20213;-85
2023/06/18 14:18:57;;;;;;;9.88;5.68;;;29.20;63.20;;;;;;5021330;28;20228;-86